Slave Lake Airport
CYZH : rendu visible

Aérodrome :











RETROUVEZ-NOUS SUR...

 
LOGIN :

S'inscrire | Disclaimer

   EN    FR    IT 

 









Légende :    VFR   VFR Marginal   IFR   IFR Intensif   IFR Très Intensif
Visi : 
Plafond : 
>= 8 km
>= 3000ft
5 à 8 km
1000 à 3000 ft
1500m à 5 km
500 à 1000 ft
800 à 1500m
200 à 500 ft
< 800m
< 200 ft
Symboles :   Orages  Brouillard  Fortes neiges  Fortes précipitations  Vent > 20 kt






- Altitude de l'aérodrome : 1912 ft
- Code IATA : YZH


CYZH - Slave Lake

DERNIER METAR :
  • 310500Z AUTO 10010G15KT 9SM FEW140 19/09 A2971 RMK SLP064 DENSITY ALT 3000FT

METARs EXPIRÉS :
  • 310400Z AUTO 11010G15KT 9SM BKN140 BKN160 19/09 A2973 RMK SLP073 DENSITY ALT 3000FT
  • 310300Z AUTO 11014G20KT 9SM FEW160 BKN200 21/09 A2974 RMK SLP077 DENSITY ALT 3100FT

TAF TAF CYZH
Valide du 31 à 01h jusqu'au 31 à 13h UTC


310038Z 3101/3113 10012G22KT P6SM BKN200
BECMG 3101/3103 12012KT
FM310600 12008KT P6SM VCSH OVC100
FM311200 13008KT P6SM BKN140 RMK FCST BASED ON AUTO OBS. NXT FCST BY 310700Z
FIR CZEG / Amérique du Nord



MET'MAP, la Météo Aéronautique d'un coup d'oeil ! - Copyright ORBIFLY Décembre 2007 - Disclaimer

ORBIFLY MET'MAP TEAM :

Programmation & Développement : Alexandra Zaïnal
Sur une idée originale de : Baudouin d'Aumeries
Assistance à la programmation : Marc-Olivier Méhu
Soutien technique & logistique : Manuel Goepfert

Contact : metmap@orbifly.com




SOURCES & CREDITS :

   NOAA       Earth
Advisory